createdAt,value
2023-03-28T00:01:43.792Z,0.19
2023-03-28T00:04:15.395Z,0.15
2023-03-28T00:06:47.365Z,0.17
2023-03-28T00:09:20.081Z,0.16
2023-03-28T00:11:51.621Z,0.16
2023-03-28T00:14:23.272Z,0.19
2023-03-28T00:16:54.819Z,0.20
2023-03-28T00:19:28.777Z,0.16
2023-03-28T00:22:00.429Z,0.18
2023-03-28T00:24:34.971Z,0.13
2023-03-28T00:27:07.317Z,0.21
2023-03-28T00:29:38.689Z,0.28
2023-03-28T00:32:11.168Z,0.27
2023-03-28T00:34:42.782Z,0.32
2023-03-28T00:37:17.660Z,0.30
2023-03-28T00:39:51.910Z,0.34
2023-03-28T00:42:24.459Z,0.34
2023-03-28T00:44:58.474Z,0.36
2023-03-28T00:47:43.793Z,0.34
2023-03-28T00:50:21.228Z,0.45
2023-03-28T00:53:04.572Z,0.39
2023-03-28T00:55:42.682Z,0.37
2023-03-28T00:58:19.965Z,0.35
2023-03-28T01:00:52.187Z,0.43
2023-03-28T01:03:30.539Z,0.34
2023-03-28T01:06:04.800Z,0.32
2023-03-28T01:08:40.028Z,0.35
2023-03-28T01:11:13.512Z,0.39
2023-03-28T01:13:49.307Z,0.36
2023-03-28T01:16:22.469Z,0.25
2023-03-28T01:18:54.094Z,0.34
2023-03-28T01:21:54.821Z,0.28
2023-03-28T01:24:44.372Z,0.26
2023-03-28T01:27:34.677Z,0.27
2023-03-28T01:30:16.246Z,0.15
2023-03-28T01:33:11.316Z,0.10
2023-03-28T01:35:58.309Z,0.06
2023-03-28T01:38:54.740Z,0.08
2023-03-28T01:41:34.394Z,0.08
2023-03-28T01:44:24.307Z,0.07
2023-03-28T01:47:10.890Z,0.03
2023-03-28T01:50:02.199Z,0.07
2023-03-28T01:53:06.069Z,-0.03
2023-03-28T01:55:58.920Z,-0.05
2023-03-28T01:58:43.430Z,-0.02
2023-03-28T02:01:26.272Z,-0.08
2023-03-28T02:04:03.017Z,-0.07
2023-03-28T02:06:38.532Z,-0.11
2023-03-28T02:09:11.951Z,-0.23
2023-03-28T02:11:45.546Z,-0.21
2023-03-28T02:14:21.366Z,-0.32
2023-03-28T02:16:57.458Z,-0.42
2023-03-28T02:19:31.128Z,-0.40
2023-03-28T02:22:31.858Z,-0.32
2023-03-28T02:25:04.142Z,-0.36
2023-03-28T02:27:39.874Z,-0.48
2023-03-28T02:30:12.469Z,-0.61
2023-03-28T02:32:49.823Z,-0.58
2023-03-28T02:35:28.465Z,-0.51
2023-03-28T02:37:59.977Z,-0.62
2023-03-28T02:41:07.168Z,-0.61
2023-03-28T02:44:13.763Z,-0.59
2023-03-28T02:46:51.430Z,-0.58
2023-03-28T02:49:50.395Z,-0.53
2023-03-28T02:52:52.209Z,-0.55
2023-03-28T02:55:45.670Z,-0.66
2023-03-28T02:58:30.246Z,-0.64
2023-03-28T03:01:02.576Z,-0.63
2023-03-28T03:03:36.504Z,-0.69
2023-03-28T03:06:08.775Z,-0.75
2023-03-28T03:08:40.266Z,-0.64
2023-03-28T03:11:11.947Z,-0.71
2023-03-28T03:13:44.229Z,-0.71
2023-03-28T03:16:16.091Z,-0.63
2023-03-28T03:18:47.883Z,-0.70
2023-03-28T03:21:20.150Z,-0.70
2023-03-28T03:23:52.638Z,-0.77
2023-03-28T03:26:24.367Z,-0.71
2023-03-28T03:28:57.370Z,-0.81
2023-03-28T03:31:28.994Z,-0.77
2023-03-28T03:34:04.187Z,-0.81
2023-03-28T03:36:35.734Z,-0.80
2023-03-28T03:39:07.699Z,-0.83
2023-03-28T03:41:39.980Z,-0.96
2023-03-28T03:44:11.696Z,-0.90
2023-03-28T03:46:43.358Z,-0.87
2023-03-28T03:49:14.917Z,-0.87
2023-03-28T03:51:46.511Z,-0.89
2023-03-28T03:54:18.640Z,-0.86
2023-03-28T03:56:50.737Z,-0.92
2023-03-28T03:59:22.630Z,-0.97
2023-03-28T04:01:55.691Z,-0.96
2023-03-28T04:04:28.129Z,-0.91
2023-03-28T04:06:59.742Z,-1.00
2023-03-28T04:09:31.289Z,-0.91
2023-03-28T04:12:05.338Z,-0.90
2023-03-28T04:14:36.902Z,-0.88
2023-03-28T04:17:11.589Z,-1.00
2023-03-28T04:19:43.885Z,-0.91
2023-03-28T04:22:18.464Z,-0.94
2023-03-28T04:24:53.450Z,-0.86
2023-03-28T04:27:26.292Z,-0.96
2023-03-28T04:30:00.968Z,-0.90
2023-03-28T04:32:36.053Z,-0.89
2023-03-28T04:35:11.436Z,-0.88
2023-03-28T04:37:44.456Z,-0.93
2023-03-28T04:40:17.863Z,-0.96
2023-03-28T04:42:51.448Z,-0.96
2023-03-28T04:45:23.584Z,-0.97
2023-03-28T04:47:55.259Z,-0.94
2023-03-28T04:50:26.833Z,-1.02
2023-03-28T04:52:59.177Z,-1.04
2023-03-28T04:55:31.822Z,-0.99
2023-03-28T04:58:08.996Z,-1.09
2023-03-28T05:00:41.825Z,-0.99
2023-03-28T05:03:15.889Z,-1.07
2023-03-28T05:05:52.268Z,-0.99
2023-03-28T05:08:26.030Z,-0.93
2023-03-28T05:10:57.748Z,-1.02
2023-03-28T05:13:29.414Z,-0.99
2023-03-28T05:16:00.976Z,-1.07
2023-03-28T05:18:32.720Z,-0.99
2023-03-28T05:21:04.514Z,-1.11
2023-03-28T05:23:36.039Z,-1.02
2023-03-28T05:26:08.059Z,-1.06
2023-03-28T05:28:39.754Z,-1.08
2023-03-28T05:31:12.988Z,-1.04
2023-03-28T05:33:44.544Z,-0.98
2023-03-28T05:36:16.070Z,-0.99
2023-03-28T05:38:47.843Z,-0.90
2023-03-28T05:41:20.929Z,-0.81
2023-03-28T05:43:55.342Z,-0.86
2023-03-28T05:46:26.876Z,-0.77
2023-03-28T05:48:58.503Z,-0.77
2023-03-28T05:51:30.087Z,-0.88
2023-03-28T05:54:03.333Z,-0.77
2023-03-28T05:56:36.021Z,-0.64
2023-03-28T05:59:08.088Z,-0.59
2023-03-28T06:01:42.723Z,-0.56
2023-03-28T06:04:14.873Z,-0.46
2023-03-28T06:06:48.666Z,-0.49
2023-03-28T06:09:20.262Z,-0.41
2023-03-28T06:11:51.959Z,-0.35
2023-03-28T06:14:24.844Z,-0.49
2023-03-28T06:16:59.001Z,-0.31
2023-03-28T06:19:30.688Z,-0.35
2023-03-28T06:22:02.982Z,-0.25
2023-03-28T06:24:34.610Z,-0.18
2023-03-28T06:27:06.182Z,-0.14
2023-03-28T06:29:38.307Z,-0.08
2023-03-28T06:32:10.078Z,0.09
2023-03-28T06:34:41.570Z,-0.01
2023-03-28T06:37:14.876Z,0.09
2023-03-28T06:39:46.409Z,0.06
2023-03-28T06:42:17.982Z,0.12
2023-03-28T06:44:49.449Z,0.14
2023-03-28T06:47:22.628Z,0.17
2023-03-28T06:49:55.496Z,0.14
2023-03-28T06:52:27.129Z,0.43
2023-03-28T06:54:59.046Z,0.53
2023-03-28T06:57:30.874Z,0.40
2023-03-28T07:00:03.363Z,0.38
2023-03-28T07:02:35.025Z,0.42
2023-03-28T07:05:07.082Z,0.42
2023-03-28T07:07:38.655Z,0.50
2023-03-28T07:10:10.600Z,0.56
2023-03-28T07:12:44.831Z,0.68
2023-03-28T07:15:17.805Z,0.63
2023-03-28T07:17:50.965Z,0.67
2023-03-28T07:20:23.561Z,0.80
2023-03-28T07:22:55.120Z,0.92
2023-03-28T07:25:26.634Z,0.94
2023-03-28T07:27:58.389Z,1.00
2023-03-28T07:30:29.952Z,1.10
2023-03-28T07:33:13.831Z,1.24
2023-03-28T07:35:50.384Z,1.14
2023-03-28T07:38:22.070Z,1.41
2023-03-28T07:40:53.575Z,1.33
2023-03-28T07:43:25.238Z,1.24
2023-03-28T07:46:06.418Z,1.25
2023-03-28T07:48:38.492Z,1.24
2023-03-28T07:51:11.206Z,1.24
2023-03-28T07:53:42.984Z,1.26
2023-03-28T07:56:14.525Z,1.13
2023-03-28T07:58:46.188Z,1.37
2023-03-28T08:01:18.868Z,1.60
2023-03-28T08:03:50.914Z,1.75
2023-03-28T08:06:32.205Z,2.02
2023-03-28T08:09:06.512Z,2.01
2023-03-28T08:11:39.752Z,1.90
2023-03-28T08:14:14.189Z,1.91
2023-03-28T08:16:46.542Z,2.06
2023-03-28T08:19:18.062Z,2.17
2023-03-28T08:21:49.633Z,2.18
2023-03-28T08:24:32.775Z,2.22
2023-03-28T08:27:07.089Z,2.35
2023-03-28T08:29:38.616Z,2.53
2023-03-28T08:32:10.259Z,2.90
2023-03-28T08:34:41.826Z,2.79
2023-03-28T08:37:13.294Z,2.65
2023-03-28T08:39:44.790Z,2.75
2023-03-28T08:42:19.138Z,2.81
2023-03-28T08:45:02.795Z,2.85
2023-03-28T08:47:53.015Z,2.90
2023-03-28T08:50:38.205Z,3.07
2023-03-28T08:53:37.411Z,3.09
2023-03-28T08:56:09.263Z,3.01
2023-03-28T08:58:54.956Z,3.16
2023-03-28T09:01:29.534Z,2.94
2023-03-28T09:04:01.979Z,3.02
2023-03-28T09:06:42.703Z,3.13
2023-03-28T09:09:39.152Z,3.32
2023-03-28T09:12:39.928Z,3.54
2023-03-28T09:15:35.524Z,3.67
2023-03-28T09:18:37.204Z,3.56
2023-03-28T09:21:17.528Z,3.78
2023-03-28T09:24:13.719Z,4.10
2023-03-28T09:26:57.327Z,4.04
2023-03-28T09:29:32.748Z,4.13
2023-03-28T09:32:12.521Z,4.03
2023-03-28T09:34:50.690Z,3.96
2023-03-28T09:37:35.357Z,3.93
2023-03-28T09:40:18.359Z,3.67
2023-03-28T09:42:57.100Z,3.55
2023-03-28T09:46:01.096Z,3.49
2023-03-28T09:48:36.384Z,3.51
2023-03-28T09:51:16.004Z,3.64
2023-03-28T09:53:48.257Z,3.77
2023-03-28T09:56:32.206Z,3.65
2023-03-28T09:59:05.498Z,3.90
2023-03-28T10:01:45.514Z,4.08
2023-03-28T10:04:32.242Z,4.54
2023-03-28T10:07:09.675Z,4.21
2023-03-28T10:09:55.760Z,4.13
2023-03-28T10:12:35.510Z,3.95
2023-03-28T10:15:27.538Z,4.08
2023-03-28T10:18:01.605Z,4.50
2023-03-28T10:20:37.421Z,4.45
2023-03-28T10:23:12.924Z,4.80
2023-03-28T10:25:49.751Z,5.13
2023-03-28T10:28:30.467Z,4.98
2023-03-28T10:31:03.864Z,5.20
2023-03-28T10:33:41.311Z,5.04
2023-03-28T10:36:25.833Z,4.54
2023-03-28T10:38:57.782Z,4.87
2023-03-28T10:41:29.925Z,5.08
2023-03-28T10:44:18.038Z,4.69
2023-03-28T10:46:49.835Z,5.28
2023-03-28T10:49:22.300Z,5.54
2023-03-28T10:51:53.850Z,5.46
2023-03-28T10:54:33.338Z,5.38
2023-03-28T10:57:37.882Z,5.40
2023-03-28T11:00:23.129Z,5.09
2023-03-28T11:03:05.915Z,4.79
2023-03-28T11:05:41.221Z,4.75
2023-03-28T11:08:27.915Z,5.08
2023-03-28T11:11:22.067Z,5.52
2023-03-28T11:14:01.007Z,5.89
2023-03-28T11:16:48.547Z,5.68
2023-03-28T11:19:53.016Z,5.46
2023-03-28T11:22:47.730Z,5.30
2023-03-28T11:25:50.858Z,5.44
2023-03-28T11:28:45.342Z,5.58
2023-03-28T11:31:24.708Z,5.57
2023-03-28T11:34:22.526Z,6.14
2023-03-28T11:37:03.358Z,6.05
2023-03-28T11:39:58.191Z,6.28
2023-03-28T11:42:54.762Z,6.86
2023-03-28T11:45:47.247Z,7.27
2023-03-28T11:48:42.616Z,6.87
2023-03-28T11:51:26.282Z,6.49
2023-03-28T11:54:15.751Z,6.14
2023-03-28T11:57:02.541Z,6.38
2023-03-28T11:59:47.694Z,6.39
2023-03-28T12:02:31.701Z,6.34
2023-03-28T12:05:10.316Z,6.36
2023-03-28T12:07:50.219Z,6.62
2023-03-28T12:10:35.835Z,6.52
2023-03-28T12:13:23.931Z,6.61
2023-03-28T12:16:09.875Z,6.84
2023-03-28T12:18:47.061Z,6.34
2023-03-28T12:21:37.481Z,6.05
2023-03-28T12:24:27.788Z,6.31
2023-03-28T12:27:23.668Z,6.74
2023-03-28T12:30:01.434Z,6.64
2023-03-28T12:32:55.420Z,6.67
2023-03-28T12:35:52.765Z,6.65
2023-03-28T12:38:47.970Z,6.87
2023-03-28T12:41:25.519Z,7.14
2023-03-28T12:44:10.527Z,6.88
2023-03-28T12:46:46.479Z,7.58
2023-03-28T12:49:32.786Z,7.28
2023-03-28T12:52:06.668Z,7.59
2023-03-28T12:55:01.966Z,7.92
2023-03-28T12:57:48.671Z,7.82
2023-03-28T13:00:23.741Z,8.27
2023-03-28T13:03:04.916Z,8.00
2023-03-28T13:05:57.143Z,7.77
2023-03-28T13:09:01.134Z,7.89
2023-03-28T13:11:52.623Z,8.07
2023-03-28T13:14:41.543Z,8.06
2023-03-28T13:17:21.620Z,8.31
2023-03-28T13:19:55.834Z,8.50
2023-03-28T13:22:27.344Z,8.34
2023-03-28T13:25:21.355Z,7.95
2023-03-28T13:28:01.380Z,7.76
2023-03-28T13:30:33.153Z,8.18
2023-03-28T13:33:24.734Z,8.54
2023-03-28T13:35:59.314Z,9.01
2023-03-28T13:38:35.661Z,8.68
2023-03-28T13:41:11.968Z,9.16
2023-03-28T13:43:44.861Z,9.87
2023-03-28T13:46:44.295Z,10.69
2023-03-28T13:49:20.770Z,11.79
2023-03-28T13:51:58.270Z,13.65
2023-03-28T13:54:31.098Z,15.40
2023-03-28T13:57:08.470Z,16.02
2023-03-28T13:59:54.938Z,17.48
2023-03-28T14:02:31.961Z,19.83
2023-03-28T14:05:19.304Z,19.70
2023-03-28T14:07:53.016Z,20.13
2023-03-28T14:10:36.604Z,20.72
2023-03-28T14:13:33.953Z,19.91
2023-03-28T14:16:07.509Z,17.08
2023-03-28T14:18:46.814Z,17.87
2023-03-28T14:21:20.519Z,17.92
2023-03-28T14:23:58.517Z,16.48
2023-03-28T14:26:34.166Z,15.91
2023-03-28T14:29:17.666Z,17.16
2023-03-28T14:31:50.161Z,16.65
2023-03-28T14:34:25.425Z,16.68
2023-03-28T14:37:22.729Z,16.95
2023-03-28T14:39:54.369Z,16.90
2023-03-28T14:42:28.574Z,15.31
2023-03-28T14:45:00.181Z,14.07
2023-03-28T14:47:35.445Z,13.08
2023-03-28T14:50:08.328Z,12.26
2023-03-28T14:52:41.191Z,11.56
2023-03-28T14:55:21.482Z,11.32
2023-03-28T14:57:54.633Z,10.53
2023-03-28T15:00:39.390Z,10.43
2023-03-28T15:03:22.480Z,10.30
2023-03-28T15:05:54.885Z,9.97
2023-03-28T15:08:38.705Z,9.98
2023-03-28T15:11:34.524Z,10.20
2023-03-28T15:14:31.229Z,9.99
2023-03-28T15:17:03.286Z,10.18
2023-03-28T15:19:40.000Z,9.87
2023-03-28T15:22:16.048Z,10.09
2023-03-28T15:24:47.920Z,9.99
2023-03-28T15:27:31.546Z,10.11
2023-03-28T15:30:14.098Z,9.58
2023-03-28T15:32:46.277Z,9.94
2023-03-28T15:35:29.728Z,10.13
2023-03-28T15:38:17.517Z,9.52
2023-03-28T15:40:51.300Z,9.52
2023-03-28T15:43:41.416Z,9.87
2023-03-28T15:46:15.746Z,9.98
2023-03-28T15:48:48.167Z,11.01
2023-03-28T15:51:19.925Z,12.16
2023-03-28T15:53:54.201Z,13.65
2023-03-28T15:56:32.540Z,14.18
2023-03-28T15:59:11.813Z,14.20
2023-03-28T16:01:46.117Z,14.95
2023-03-28T16:04:27.890Z,14.83
2023-03-28T16:07:13.220Z,13.96
2023-03-28T16:09:46.546Z,14.06
2023-03-28T16:12:19.484Z,13.37
2023-03-28T16:14:52.944Z,12.98
2023-03-28T16:17:31.008Z,12.66
2023-03-28T16:20:09.560Z,12.43
2023-03-28T16:22:44.954Z,11.64
2023-03-28T16:25:17.738Z,11.27
2023-03-28T16:27:49.282Z,10.68
2023-03-28T16:30:27.403Z,10.40
2023-03-28T16:32:59.198Z,10.18
2023-03-28T16:35:30.888Z,9.23
2023-03-28T16:38:02.676Z,9.40
2023-03-28T16:40:35.386Z,9.16
2023-03-28T16:43:07.909Z,8.94
2023-03-28T16:45:40.574Z,8.78
2023-03-28T16:48:12.315Z,8.78
2023-03-28T16:50:55.468Z,8.52
2023-03-28T16:53:27.063Z,8.40
2023-03-28T16:56:00.103Z,8.50
2023-03-28T16:58:31.821Z,8.46
2023-03-28T17:01:05.921Z,8.43
2023-03-28T17:03:38.118Z,8.20
2023-03-28T17:06:14.523Z,7.91
2023-03-28T17:08:46.389Z,7.73
2023-03-28T17:11:17.941Z,7.64
2023-03-28T17:13:53.864Z,7.53
2023-03-28T17:16:25.599Z,7.47
2023-03-28T17:18:57.244Z,7.42
2023-03-28T17:21:30.198Z,7.34
2023-03-28T17:24:02.087Z,7.34
2023-03-28T17:26:34.687Z,7.22
2023-03-28T17:29:07.689Z,7.18
2023-03-28T17:31:39.499Z,7.12
2023-03-28T17:34:13.117Z,7.06
2023-03-28T17:36:44.929Z,6.98
2023-03-28T17:39:17.600Z,6.91
2023-03-28T17:41:49.257Z,6.84
2023-03-28T17:44:21.127Z,6.73
2023-03-28T17:46:54.409Z,6.65
2023-03-28T17:49:26.503Z,6.57
2023-03-28T17:51:58.502Z,6.43
2023-03-28T17:54:30.074Z,6.42
2023-03-28T17:57:01.938Z,6.35
2023-03-28T17:59:34.597Z,6.29
2023-03-28T18:02:08.380Z,6.22
2023-03-28T18:04:41.252Z,6.15
2023-03-28T18:07:16.472Z,6.00
2023-03-28T18:09:50.041Z,5.92
2023-03-28T18:12:22.376Z,5.98
2023-03-28T18:14:53.799Z,5.91
2023-03-28T18:17:25.400Z,5.92
2023-03-28T18:19:58.740Z,5.92
2023-03-28T18:22:32.463Z,5.90
2023-03-28T18:25:06.179Z,5.86
2023-03-28T18:27:39.230Z,5.88
2023-03-28T18:30:11.426Z,5.81
2023-03-28T18:32:44.826Z,5.77
2023-03-28T18:35:16.698Z,5.68
2023-03-28T18:37:51.206Z,5.64
2023-03-28T18:40:22.984Z,5.54
2023-03-28T18:42:55.029Z,5.46
2023-03-28T18:45:27.754Z,5.35
2023-03-28T18:48:02.441Z,5.33
2023-03-28T18:50:34.664Z,5.22
2023-03-28T18:53:07.402Z,5.17
2023-03-28T18:55:42.105Z,5.08
2023-03-28T18:58:17.424Z,5.00
2023-03-28T19:01:09.226Z,4.95
2023-03-28T19:03:42.353Z,4.90
2023-03-28T19:06:15.279Z,4.85
2023-03-28T19:08:47.531Z,4.79
2023-03-28T19:11:20.854Z,4.77
2023-03-28T19:13:53.663Z,4.65
2023-03-28T19:16:26.318Z,4.62
2023-03-28T19:19:01.436Z,4.49
2023-03-28T19:21:34.509Z,4.47
2023-03-28T19:24:07.032Z,4.46
2023-03-28T19:26:42.701Z,4.43
2023-03-28T19:29:15.361Z,4.39
2023-03-28T19:31:47.594Z,4.37
2023-03-28T19:34:21.940Z,4.35
2023-03-28T19:36:53.661Z,4.17
2023-03-28T19:39:25.422Z,4.13
2023-03-28T19:41:57.202Z,4.07
2023-03-28T19:44:28.981Z,4.00
2023-03-28T19:47:01.050Z,4.04
2023-03-28T19:49:32.971Z,4.05
2023-03-28T19:52:05.700Z,4.09
2023-03-28T19:54:38.189Z,4.06
2023-03-28T19:57:09.729Z,4.06
2023-03-28T19:59:44.070Z,4.09
2023-03-28T20:02:16.746Z,4.05
2023-03-28T20:04:48.330Z,4.06
2023-03-28T20:07:21.194Z,3.99
2023-03-28T20:09:53.143Z,3.99
2023-03-28T20:12:24.709Z,3.96
2023-03-28T20:14:57.047Z,3.95
2023-03-28T20:17:29.849Z,3.88
2023-03-28T20:20:06.434Z,3.86
2023-03-28T20:22:38.008Z,3.88
2023-03-28T20:25:10.027Z,3.90
2023-03-28T20:27:41.988Z,3.81
2023-03-28T20:30:13.712Z,3.82
2023-03-28T20:32:49.429Z,3.78
2023-03-28T20:35:21.405Z,3.80
2023-03-28T20:37:53.698Z,3.79
2023-03-28T20:40:26.025Z,3.77
2023-03-28T20:42:57.655Z,3.79
2023-03-28T20:45:29.227Z,3.88
2023-03-28T20:48:06.729Z,3.87
2023-03-28T20:50:39.148Z,3.88
2023-03-28T20:53:10.723Z,3.91
2023-03-28T20:55:43.316Z,3.89
2023-03-28T20:58:14.842Z,3.90
2023-03-28T21:00:47.411Z,3.95
2023-03-28T21:03:19.027Z,3.93
2023-03-28T21:05:51.303Z,3.97
2023-03-28T21:08:27.627Z,4.02
2023-03-28T21:10:59.453Z,3.95
2023-03-28T21:13:31.590Z,3.94
2023-03-28T21:16:03.273Z,3.96
2023-03-28T21:18:40.141Z,4.01
2023-03-28T21:21:13.325Z,4.03
2023-03-28T21:23:51.867Z,4.01
2023-03-28T21:26:23.660Z,4.02
2023-03-28T21:28:55.442Z,3.94
2023-03-28T21:31:29.163Z,3.95
2023-03-28T21:34:01.029Z,3.91
2023-03-28T21:36:32.671Z,3.89
2023-03-28T21:39:04.498Z,3.94
2023-03-28T21:41:38.099Z,3.96
2023-03-28T21:44:09.715Z,3.96
2023-03-28T21:46:42.800Z,3.92
2023-03-28T21:49:14.465Z,3.90
2023-03-28T21:51:46.389Z,3.82
2023-03-28T21:54:18.307Z,3.78
2023-03-28T21:56:50.065Z,3.68
2023-03-28T21:59:21.671Z,3.64
2023-03-28T22:01:53.201Z,3.64
2023-03-28T22:04:27.492Z,3.59
2023-03-28T22:06:59.032Z,3.57
2023-03-28T22:09:36.099Z,3.62
2023-03-28T22:12:07.930Z,3.62
2023-03-28T22:14:41.412Z,3.60
2023-03-28T22:17:14.136Z,3.62
2023-03-28T22:19:46.670Z,3.64
2023-03-28T22:22:18.221Z,3.68
2023-03-28T22:24:49.881Z,3.72
2023-03-28T22:27:24.460Z,3.74
2023-03-28T22:29:58.048Z,3.70
2023-03-28T22:32:29.751Z,3.75
2023-03-28T22:35:02.056Z,3.74
2023-03-28T22:37:36.944Z,3.78
2023-03-28T22:40:10.950Z,3.79
2023-03-28T22:42:42.844Z,3.80
2023-03-28T22:45:14.961Z,3.82
2023-03-28T22:47:50.134Z,3.79
2023-03-28T22:50:22.531Z,3.77
2023-03-28T22:52:56.686Z,3.71
2023-03-28T22:55:28.463Z,3.78
2023-03-28T22:57:59.950Z,3.77
2023-03-28T23:00:32.100Z,3.79
2023-03-28T23:03:03.928Z,3.78
2023-03-28T23:05:36.154Z,3.73
2023-03-28T23:08:09.959Z,3.59
2023-03-28T23:10:41.638Z,3.51
2023-03-28T23:13:13.153Z,3.52
2023-03-28T23:15:45.056Z,3.44
2023-03-28T23:18:16.721Z,3.41
2023-03-28T23:20:50.854Z,3.41
2023-03-28T23:23:22.976Z,3.41
2023-03-28T23:25:54.511Z,3.51
2023-03-28T23:28:27.902Z,3.51
2023-03-28T23:30:59.957Z,3.21
2023-03-28T23:33:33.196Z,3.38
2023-03-28T23:36:06.490Z,3.41
2023-03-28T23:38:38.345Z,3.52
2023-03-28T23:41:10.044Z,3.58
2023-03-28T23:43:42.059Z,3.65
2023-03-28T23:46:13.867Z,3.67
2023-03-28T23:48:46.059Z,3.48
2023-03-28T23:51:17.990Z,3.55
2023-03-28T23:53:49.998Z,3.51
2023-03-28T23:56:24.011Z,3.57
2023-03-28T23:58:55.600Z,3.60
